Time;durP1;ratioP1;P1;durP2;ratioP2;P2;SDS_P1;SDS_P2;PMS_P1;PMS_P2;Temp;Humidity;BMP_temperature;BMP_pressure;BME280_temperature;BME280_humidity;BME280_pressure;Samples;Min_cycle;Max_cycle;Signal;HPM_P1;HPM_P2
2021/12/10 00:01:06;;;;;;;20.77;10.38;;;;;;;-2.44;100.00;95458.69;4942751;28;20046;-68
2021/12/10 00:03:37;;;;;;;18.52;10.43;;;;;;;-2.51;100.00;95451.09;4922591;29;20535;-69
2021/12/10 00:06:17;;;;;;;24.10;10.98;;;;;;;-2.57;100.00;95449.69;4923917;28;20052;-68
2021/12/10 00:08:45;;;;;;;;;;;;;;;-2.60;100.00;95439.59;4922894;28;20421;-69
2021/12/10 00:11:16;;;;;;;21.05;11.00;;;;;;;-2.63;100.00;95432.16;4918105;28;19930;-70
2021/12/10 00:13:45;;;;;;;21.20;10.05;;;;;;;-2.66;100.00;95424.75;4922880;28;20077;-70
2021/12/10 00:16:11;;;;;;;18.90;8.93;;;;;;;-2.75;100.00;95412.13;4920164;28;20682;-69
2021/12/10 00:18:41;;;;;;;20.45;11.40;;;;;;;-2.78;100.00;95415.41;4923173;29;20130;-70
2021/12/10 00:21:07;;;;;;;25.17;11.80;;;;;;;-2.79;100.00;95408.50;4922231;28;20102;-69
2021/12/10 00:23:33;;;;;;;24.50;12.75;;;;;;;-2.83;100.00;95398.69;4938593;29;20130;-69
2021/12/10 00:26:01;;;;;;;22.00;12.07;;;;;;;-2.84;100.00;95384.53;4937596;29;20051;-69
2021/12/10 00:28:33;;;;;;;29.60;14.43;;;;;;;-2.80;100.00;95388.16;4921014;28;20079;-69
2021/12/10 00:31:29;;;;;;;30.80;15.60;;;;;;;-2.90;100.00;95372.34;4921521;28;20035;-69
2021/12/10 00:34:08;;;;;;;36.67;16.05;;;;;;;-3.02;100.00;95364.16;4921738;29;20056;-70
2021/12/10 00:36:36;;;;;;;37.65;15.50;;;;;;;-3.03;100.00;95359.88;4922844;29;20052;-68
2021/12/10 00:39:06;;;;;;;35.80;16.05;;;;;;;-3.10;100.00;95354.97;4924155;28;20143;-69
2021/12/10 00:41:32;;;;;;;35.15;16.48;;;;;;;-3.07;100.00;95344.44;4933693;29;20058;-71
2021/12/10 00:43:57;;;;;;;39.17;17.05;;;;;;;-3.01;100.00;95339.72;4928951;28;20044;-69
2021/12/10 00:46:23;;;;;;;37.47;17.67;;;;;;;-3.15;100.00;95331.03;4911959;29;20044;-70
2021/12/10 00:48:48;;;;;;;36.15;18.17;;;;;;;-3.09;100.00;95332.47;4924049;28;20039;-70
2021/12/10 00:51:13;;;;;;;36.38;17.85;;;;;;;-3.16;100.00;95327.56;4919536;28;20054;-68
2021/12/10 00:53:41;;;;;;;39.50;18.88;;;;;;;-3.18;100.00;95316.38;4924181;28;20134;-70
2021/12/10 00:56:08;;;;;;;37.60;19.00;;;;;;;-3.07;100.00;95308.84;4921481;28;20405;-71
2021/12/10 00:58:35;;;;;;;36.22;17.95;;;;;;;-2.96;100.00;95301.28;4937364;28;20044;-71
2021/12/10 01:01:07;;;;;;;39.30;18.85;;;;;;;-2.99;100.00;95305.38;4937105;29;20132;-71
2021/12/10 01:03:42;;;;;;;40.50;18.92;;;;;;;-3.02;100.00;95289.94;4942583;28;20067;-71
2021/12/10 01:06:10;;;;;;;42.13;18.77;;;;;;;-3.05;100.00;95289.78;4913950;29;20039;-71
2021/12/10 01:08:39;;;;;;;37.20;18.20;;;;;;;-3.09;100.00;95278.91;4927653;29;20044;-72
2021/12/10 01:11:09;;;;;;;40.88;18.65;;;;;;;-3.01;100.00;95269.28;4919847;29;20056;-70
2021/12/10 01:13:39;;;;;;;36.08;18.52;;;;;;;-2.88;100.00;95260.31;4922088;29;20082;-68
2021/12/10 01:27:09;;;;;;;42.42;17.95;;;;;;;-2.79;100.00;95230.81;4920675;29;20043;-69
2021/12/10 01:29:45;;;;;;;33.90;18.10;;;;;;;-2.90;100.00;95217.75;4921291;29;20048;-69
2021/12/10 01:32:17;;;;;;;37.30;17.95;;;;;;;-2.93;100.00;95221.06;4914728;29;20048;-69
2021/12/10 01:34:43;;;;;;;30.70;16.35;;;;;;;-2.90;100.00;95220.44;4920158;28;20039;-67
2021/12/10 01:37:10;;;;;;;39.78;18.05;;;;;;;-2.84;100.00;95212.25;4915479;28;20122;-67
2021/12/10 01:39:38;;;;;;;33.10;17.20;;;;;;;-2.90;100.00;95208.91;4918135;29;20052;-68
2021/12/10 01:42:20;;;;;;;30.55;16.08;;;;;;;-2.99;100.00;95210.81;4918276;29;20063;-66
2021/12/10 01:44:52;;;;;;;31.67;15.82;;;;;;;-3.05;100.00;95202.16;4919813;29;20044;-68
2021/12/10 01:47:22;;;;;;;30.00;14.55;;;;;;;-3.05;100.00;95193.34;4917217;28;20044;-69
2021/12/10 01:49:48;;;;;;;32.05;16.55;;;;;;;-2.96;100.00;95186.88;4921338;29;20054;-67
2021/12/10 01:52:15;;;;;;;28.88;14.30;;;;;;;-2.98;100.00;95180.25;4916796;28;20123;-68
2021/12/10 01:54:45;;;;;;;29.60;14.55;;;;;;;-2.95;100.00;95174.28;4918605;28;20051;-69
2021/12/10 01:57:12;;;;;;;;;;;;;;;-2.75;100.00;95159.44;4915961;29;20042;-68
2021/12/10 01:59:38;;;;;;;37.88;15.65;;;;;;;-2.82;100.00;95151.09;4926424;28;19919;-69
2021/12/10 02:02:11;;;;;;;26.65;14.50;;;;;;;-2.86;100.00;95147.44;4920365;29;20039;-67
2021/12/10 02:04:39;;;;;;;27.25;14.75;;;;;;;-2.80;100.00;95143.50;4916833;28;20040;-68
2021/12/10 02:07:08;;;;;;;29.95;14.15;;;;;;;-2.75;100.00;95127.28;4915095;28;20052;-66
2021/12/10 02:09:34;;;;;;;25.85;13.88;;;;;;;-2.76;100.00;95123.78;4920566;29;20069;-69
2021/12/10 02:12:00;;;;;;;25.15;13.38;;;;;;;-2.82;100.00;95129.66;4920862;29;20095;-67
2021/12/10 02:14:25;;;;;;;27.83;13.27;;;;;;;-2.84;100.00;95129.97;4928909;28;20062;-67
2021/12/10 02:16:55;;;;;;;26.60;13.00;;;;;;;-2.85;100.00;95123.03;4938994;28;20775;-68
2021/12/10 02:19:21;;;;;;;24.55;13.25;;;;;;;-2.91;100.00;95110.91;4917459;28;20059;-68
2021/12/10 02:21:46;;;;;;;20.85;12.07;;;;;;;-2.83;100.00;95101.28;4924370;28;20152;-68
2021/12/10 02:24:12;;;;;;;23.23;12.35;;;;;;;-2.85;100.00;95082.81;4921238;28;20409;-68
2021/12/10 02:26:48;;;;;;;25.13;12.73;;;;;;;-2.88;100.00;95081.59;4923963;29;20047;-69
2021/12/10 02:29:16;;;;;;;26.13;13.73;;;;;;;-2.92;100.00;95061.91;4921042;29;20046;-69
2021/12/10 02:31:41;;;;;;;25.25;12.73;;;;;;;-2.93;100.00;95051.50;4927928;29;20508;-69
2021/12/10 02:34:08;;;;;;;21.80;12.52;;;;;;;-2.96;100.00;95047.56;4919950;28;20044;-67
2021/12/10 02:36:34;;;;;;;21.83;12.52;;;;;;;-2.92;100.00;95037.78;4923924;28;20173;-66
2021/12/10 02:38:59;;;;;;;25.75;13.05;;;;;;;-2.96;100.00;95041.44;4922572;28;20069;-68
2021/12/10 02:41:31;;;;;;;23.20;13.18;;;;;;;-2.91;100.00;95038.56;4907913;29;20138;-68
2021/12/10 02:44:00;;;;;;;21.88;11.77;;;;;;;-2.94;100.00;95036.53;4925069;29;20095;-68
2021/12/10 02:46:26;;;;;;;;;;;;;;;-2.96;100.00;95017.31;4917518;29;20052;-68
2021/12/10 02:48:52;;;;;;;21.63;11.25;;;;;;;-2.96;100.00;95007.38;4924043;29;19914;-68
2021/12/10 02:51:17;;;;;;;23.77;10.93;;;;;;;-2.93;100.00;94992.56;4919004;29;20043;-68
2021/12/10 02:53:45;;;;;;;19.27;9.93;;;;;;;-2.96;100.00;94985.94;4924588;28;20042;-68
2021/12/10 02:56:14;;;;;;;18.00;9.80;;;;;;;-3.01;100.00;94983.44;4919332;28;20086;-68
2021/12/10 02:58:41;;;;;;;14.50;8.60;;;;;;;-3.05;100.00;94977.16;4923161;28;20054;-68
2021/12/10 03:01:12;;;;;;;16.83;10.00;;;;;;;-3.04;100.00;94977.94;4919734;29;20051;-68
2021/12/10 03:03:40;;;;;;;19.23;9.65;;;;;;;-3.05;100.00;94971.81;4925663;29;20078;-68
2021/12/10 03:06:10;;;;;;;14.13;8.27;;;;;;;-3.11;100.00;94975.78;4918622;29;20497;-66
2021/12/10 03:08:44;;;;;;;14.88;8.43;;;;;;;-3.10;100.00;94983.50;4924114;29;20389;-68
2021/12/10 03:11:11;;;;;;;13.77;8.30;;;;;;;-3.14;100.00;94977.19;4916700;29;20099;-67
2021/12/10 03:13:37;;;;;;;14.75;8.07;;;;;;;-3.14;100.00;94966.47;4923181;29;20043;-68
2021/12/10 03:16:03;;;;;;;16.83;7.60;;;;;;;-3.15;100.00;94962.25;4922321;29;20126;-67
2021/12/10 03:18:29;;;;;;;10.55;6.93;;;;;;;-3.20;100.00;94975.81;4923052;29;20040;-68
2021/12/10 03:20:54;;;;;;;17.25;7.07;;;;;;;-3.18;100.00;94965.56;4924820;29;20484;-68
2021/12/10 03:23:20;;;;;;;15.02;6.60;;;;;;;-3.13;100.00;94954.69;4919015;29;20165;-68
2021/12/10 03:25:45;;;;;;;11.18;6.10;;;;;;;-3.15;100.00;94956.91;4921279;29;20130;-67
2021/12/10 03:28:11;;;;;;;14.50;6.75;;;;;;;-3.21;100.00;94952.03;4920586;29;20130;-67
2021/12/10 03:30:42;;;;;;;13.52;5.97;;;;;;;-3.23;100.00;94956.91;4919544;29;20098;-69
2021/12/10 03:33:08;;;;;;;13.80;5.65;;;;;;;-3.27;100.00;94956.78;4915713;29;20040;-69
2021/12/10 03:35:41;;;;;;;8.05;5.00;;;;;;;-3.24;100.00;94949.97;4925202;28;20040;-69
2021/12/10 03:38:08;;;;;;;10.18;4.10;;;;;;;-3.25;100.00;94945.75;4923272;28;20043;-69
2021/12/10 03:40:34;;;;;;;7.15;3.97;;;;;;;-3.28;100.00;94933.78;4925124;29;20436;-68
2021/12/10 03:43:00;;;;;;;7.65;4.45;;;;;;;-3.29;100.00;94924.97;4925502;28;20036;-69
2021/12/10 03:45:31;;;;;;;7.63;4.57;;;;;;;-3.18;100.00;94911.22;4911492;28;20158;-68
2021/12/10 03:47:58;;;;;;;9.05;4.35;;;;;;;-3.11;100.00;94901.56;4921254;29;20409;-66
2021/12/10 03:50:28;;;;;;;6.70;3.90;;;;;;;-3.07;100.00;94889.09;4914957;29;21081;-67
2021/12/10 03:52:53;;;;;;;6.57;3.55;;;;;;;-2.99;100.00;94878.66;4923213;29;20122;-68
2021/12/10 03:55:22;;;;;;;8.77;3.50;;;;;;;-3.03;100.00;94886.56;4917631;29;20127;-67
2021/12/10 03:57:48;;;;;;;8.10;3.25;;;;;;;-3.03;100.00;94885.78;4924492;29;20521;-67
2021/12/10 04:00:14;;;;;;;7.93;4.35;;;;;;;-3.05;100.00;94888.00;4916678;28;20067;-67
2021/12/10 04:02:40;;;;;;;6.10;3.63;;;;;;;-3.05;100.00;94890.69;4923661;29;20039;-67
2021/12/10 04:05:06;;;;;;;8.52;4.15;;;;;;;-3.05;100.00;94890.69;4919098;29;20031;-68
2021/12/10 04:07:31;;;;;;;6.38;3.65;;;;;;;-3.08;100.00;94887.53;4921551;29;20063;-67
2021/12/10 04:09:57;;;;;;;9.23;3.72;;;;;;;-3.13;100.00;94890.41;4925457;28;20071;-68
2021/12/10 04:12:23;;;;;;;7.22;3.78;;;;;;;-3.14;100.00;94880.78;4920123;29;20047;-67
2021/12/10 04:14:51;;;;;;;7.20;3.53;;;;;;;-3.14;100.00;94877.31;4926509;29;20044;-67
2021/12/10 04:17:19;;;;;;;3.80;2.80;;;;;;;-3.22;100.00;94867.44;4922538;28;20047;-66
2021/12/10 04:19:45;;;;;;;6.75;4.00;;;;;;;-3.19;100.00;94864.91;4924039;29;20073;-67
2021/12/10 04:22:12;;;;;;;5.78;3.80;;;;;;;-3.19;100.00;94861.44;4920987;29;20125;-68
2021/12/10 04:24:40;;;;;;;4.85;3.45;;;;;;;-3.20;100.00;94860.66;4923028;29;20079;-69
2021/12/10 04:27:08;;;;;;;7.93;3.25;;;;;;;-3.21;100.00;94863.66;4924267;29;20040;-65
2021/12/10 04:29:34;;;;;;;6.18;3.72;;;;;;;-3.22;100.00;94859.41;4936679;29;20043;-68
2021/12/10 04:32:00;;;;;;;6.13;3.08;;;;;;;-3.19;100.00;94861.44;4924379;29;20095;-68
2021/12/10 04:34:26;;;;;;;5.05;2.72;;;;;;;-3.15;100.00;94854.31;4917996;29;20437;-67
2021/12/10 04:36:54;;;;;;;4.88;3.05;;;;;;;-3.09;100.00;94851.13;4922801;29;20031;-67
2021/12/10 04:39:20;;;;;;;4.20;2.40;;;;;;;-3.09;100.00;94853.81;4916876;29;20054;-68
2021/12/10 04:41:46;;;;;;;5.82;2.50;;;;;;;-3.09;100.00;94851.13;4923908;29;20035;-67
2021/12/10 04:44:12;;;;;;;5.35;2.70;;;;;;;-3.11;100.00;94860.63;4916902;29;20047;-69
2021/12/10 04:46:38;;;;;;;4.10;2.92;;;;;;;-3.10;100.00;94852.28;4923849;28;20040;-69
2021/12/10 04:49:12;;;;;;;5.43;2.38;;;;;;;-3.16;100.00;94850.88;4917261;29;20047;-65
2021/12/10 04:51:51;;;;;;;4.45;2.33;;;;;;;-3.16;100.00;94850.09;4920168;28;20035;-66
2021/12/10 04:54:20;;;;;;;3.97;2.60;;;;;;;-3.22;100.00;94849.50;4920705;29;20115;-65
2021/12/10 04:56:47;;;;;;;5.63;2.05;;;;;;;-3.17;100.00;94845.84;4930869;29;20051;-68
2021/12/10 04:59:17;;;;;;;5.65;2.40;;;;;;;-3.27;100.00;94837.06;4919070;29;20039;-68
2021/12/10 05:01:43;;;;;;;5.60;2.28;;;;;;;-3.31;100.00;94824.66;4923509;29;20039;-68
2021/12/10 05:04:10;;;;;;;4.00;2.63;;;;;;;-3.37;100.00;94821.38;4917647;29;20142;-67
2021/12/10 05:06:37;;;;;;;2.53;1.95;;;;;;;-3.35;100.00;94813.00;4924678;29;20230;-68
2021/12/10 05:09:06;;;;;;;6.43;2.47;;;;;;;-3.37;100.00;94804.53;4928587;28;20043;-63
2021/12/10 05:11:32;;;;;;;7.60;2.55;;;;;;;-3.39;100.00;94796.81;4924661;29;20043;-68
2021/12/10 05:13:57;;;;;;;5.07;2.42;;;;;;;-3.40;100.00;94792.59;4923702;29;20112;-67
2021/12/10 05:16:26;;;;;;;5.22;2.40;;;;;;;-3.37;100.00;94804.53;4915745;28;20426;-68
2021/12/10 05:18:57;;;;;;;4.43;2.00;;;;;;;-3.38;100.00;94801.06;4922040;28;20138;-68
2021/12/10 05:21:25;;;;;;;5.88;2.00;;;;;;;-3.30;100.00;94802.13;4919481;28;20281;-68
2021/12/10 05:23:51;;;;;;;4.57;2.08;;;;;;;-3.27;99.15;94806.84;4920641;28;20106;-68
2021/12/10 05:26:17;;;;;;;3.83;2.33;;;;;;;-3.33;99.11;94795.53;4918177;29;20501;-68
2021/12/10 05:28:42;;;;;;;6.18;2.67;;;;;;;-3.37;98.78;94789.25;4915438;29;20126;-67
2021/12/10 05:31:08;;;;;;;4.88;2.10;;;;;;;-3.44;99.62;94772.13;4924652;28;20044;-67
2021/12/10 05:33:33;;;;;;;6.63;2.97;;;;;;;-3.42;98.81;94770.72;4932100;29;20051;-67
2021/12/10 05:36:01;;;;;;;6.63;2.10;;;;;;;-3.51;99.50;94778.78;4924782;29;20076;-67
2021/12/10 05:38:29;;;;;;;4.88;2.22;;;;;;;-3.43;98.12;94771.03;4918873;29;20090;-67
2021/12/10 05:40:55;;;;;;;4.53;2.22;;;;;;;-3.42;97.93;94776.06;4921633;29;20036;-67
2021/12/10 05:43:22;;;;;;;5.90;2.20;;;;;;;-3.49;98.05;94768.53;4916977;29;20430;-67
2021/12/10 05:45:48;;;;;;;4.68;2.50;;;;;;;-3.53;98.80;94769.50;4929437;29;20054;-68
2021/12/10 05:48:15;;;;;;;4.70;2.38;;;;;;;-3.54;98.08;94759.91;4930587;29;20036;-68
2021/12/10 05:50:41;;;;;;;4.70;2.08;;;;;;;-3.43;97.04;94753.06;4936533;29;20047;-67
2021/12/10 05:53:07;;;;;;;2.55;1.95;;;;;;;-3.49;97.23;94744.44;4925077;28;20048;-67
2021/12/10 05:55:35;;;;;;;4.03;2.35;;;;;;;-3.40;96.35;94735.56;4923979;29;20478;-66
2021/12/10 05:58:01;;;;;;;4.03;2.45;;;;;;;-3.43;96.96;94728.22;4924539;29;20043;-70
2021/12/10 06:00:33;;;;;;;8.32;2.25;;;;;;;-3.42;96.33;94729.75;4919309;29;20135;-69
2021/12/10 06:03:00;;;;;;;4.28;1.98;;;;;;;-3.49;96.33;94727.63;4927453;28;20044;-69
2021/12/10 06:05:26;;;;;;;2.70;1.98;;;;;;;-3.42;95.68;94732.44;4909839;29;20126;-68
2021/12/10 06:07:52;;;;;;;2.63;1.70;;;;;;;-3.39;94.95;94726.44;4924751;29;20103;-69
2021/12/10 06:10:21;;;;;;;2.03;1.83;;;;;;;-3.25;93.20;94718.16;4920700;29;20039;-67
2021/12/10 06:12:47;;;;;;;4.03;1.83;;;;;;;-3.21;93.33;94713.72;4923919;29;20099;-67
2021/12/10 06:15:17;;;;;;;5.15;1.90;;;;;;;-3.28;93.21;94707.00;4916993;29;20039;-67
2021/12/10 06:17:42;;;;;;;;;;;;;;;-3.31;93.97;94704.19;4899840;29;20053;-68
2021/12/10 06:20:11;;;;;;;2.30;1.90;;;;;;;-3.30;94.25;94692.34;4918119;29;20393;-69
2021/12/10 06:22:36;;;;;;;3.20;1.77;;;;;;;-3.31;93.83;94686.22;4926165;28;20035;-68
2021/12/10 06:25:04;;;;;;;3.33;2.35;;;;;;;-3.22;92.89;94680.81;4924176;29;20142;-65
2021/12/10 06:27:29;;;;;;;3.60;1.70;;;;;;;-3.14;92.16;94692.56;4920999;29;20397;-69
2021/12/10 06:29:55;;;;;;;2.35;1.85;;;;;;;-3.18;92.41;94705.03;4926526;29;20040;-67
2021/12/10 06:32:22;;;;;;;3.80;2.35;;;;;;;-3.19;92.77;94703.47;4917426;28;20099;-69
2021/12/10 06:34:47;;;;;;;3.28;1.90;;;;;;;-3.29;93.68;94705.41;4924195;29;20130;-67
2021/12/10 06:37:13;;;;;;;6.13;2.30;;;;;;;-3.29;92.51;94707.31;4916113;29;20126;-68
2021/12/10 06:39:38;;;;;;;3.15;2.03;;;;;;;-3.34;93.54;94697.59;4927808;28;20043;-68
2021/12/10 06:42:05;;;;;;;4.22;2.00;;;;;;;-3.44;94.13;94708.66;4932853;28;20075;-66
2021/12/10 06:44:30;;;;;;;3.80;2.17;;;;;;;-3.52;94.89;94702.28;4923968;29;20520;-69
2021/12/10 06:46:56;;;;;;;4.15;2.13;;;;;;;-3.56;95.17;94704.03;4925060;29;20044;-65
2021/12/10 06:49:21;;;;;;;11.55;2.15;;;;;;;-3.59;96.02;94704.69;4919501;28;20384;-68
2021/12/10 06:51:47;;;;;;;2.85;2.20;;;;;;;-3.57;95.28;94699.00;4908840;29;20044;-66
2021/12/10 06:54:13;;;;;;;4.13;2.00;;;;;;;-3.57;95.28;94691.75;4916767;28;20132;-68
2021/12/10 06:56:39;;;;;;;5.47;2.30;;;;;;;-3.48;95.16;94692.47;4923843;29;20481;-67
2021/12/10 06:59:07;;;;;;;3.13;2.10;;;;;;;-3.54;95.90;94680.41;4911443;28;20075;-67
2021/12/10 07:01:38;;;;;;;3.17;1.90;;;;;;;-3.55;95.23;94676.16;4926011;28;20047;-68
2021/12/10 07:04:10;;;;;;;2.28;2.08;;;;;;;-3.54;95.33;94683.09;4915070;28;20058;-63
2021/12/10 07:06:37;;;;;;;4.25;1.98;;;;;;;-3.56;95.88;94673.84;4924795;29;20043;-68
2021/12/10 07:09:09;;;;;;;6.20;2.10;;;;;;;-3.58;96.97;94668.00;4921228;29;20035;-64
2021/12/10 07:11:35;;;;;;;2.63;2.00;;;;;;;-3.74;98.58;94660.56;4921225;29;20074;-69
2021/12/10 07:14:00;;;;;;;2.92;2.28;;;;;;;-3.81;98.48;94659.53;4920870;29;20442;-70
2021/12/10 07:16:28;;;;;;;3.00;1.85;;;;;;;-3.82;98.67;94650.69;4920875;29;20048;-67
2021/12/10 07:18:56;;;;;;;2.40;2.08;;;;;;;-3.76;98.72;94638.72;4931049;29;20043;-68
2021/12/10 07:21:22;;;;;;;3.35;2.30;;;;;;;-3.72;98.54;94634.25;4922452;29;20665;-69
2021/12/10 07:23:48;;;;;;;5.10;2.60;;;;;;;-3.61;98.84;94633.88;4907495;29;20039;-68
2021/12/10 07:26:14;;;;;;;2.72;2.20;;;;;;;-3.51;97.56;94628.91;4920151;29;20505;-67
2021/12/10 07:28:40;;;;;;;3.30;2.20;;;;;;;-3.54;97.61;94623.44;4923790;29;20473;-68
2021/12/10 07:31:07;;;;;;;4.63;2.30;;;;;;;-3.43;96.04;94626.50;4918353;29;20421;-67
2021/12/10 07:33:33;;;;;;;4.53;2.50;;;;;;;-3.37;95.99;94620.59;4920103;29;20051;-68
2021/12/10 07:35:59;;;;;;;5.13;2.22;;;;;;;-3.32;96.01;94620.41;4919738;29;20039;-68
2021/12/10 07:38:24;;;;;;;6.70;2.50;;;;;;;-3.40;96.21;94607.88;4914071;28;20067;-68
2021/12/10 07:40:51;;;;;;;6.13;2.13;;;;;;;-3.39;96.14;94614.03;4926661;29;20044;-70
2021/12/10 07:43:17;;;;;;;3.72;2.45;;;;;;;-3.34;95.41;94603.13;4923561;29;20047;-70
2021/12/10 07:45:46;;;;;;;5.32;2.50;;;;;;;-3.33;95.73;94585.91;4925183;28;20049;-70
2021/12/10 07:48:15;;;;;;;3.80;2.53;;;;;;;-3.27;95.41;94572.00;4916211;29;20036;-69
2021/12/10 07:50:49;;;;;;;6.50;2.78;;;;;;;-3.37;95.64;94574.31;4922299;29;20043;-67
2021/12/10 07:53:18;;;;;;;4.30;2.90;;;;;;;-3.36;96.95;94591.97;4917950;28;20137;-67
2021/12/10 07:55:43;;;;;;;40.88;18.52;;;;;;;-3.25;96.39;94606.50;4921732;29;20094;-68
2021/12/10 07:58:09;;;;;;;19.08;11.55;;;;;;;-3.13;95.58;94624.50;4919470;29;20047;-65
2021/12/10 08:00:38;;;;;;;12.20;8.38;;;;;;;-3.00;96.33;94628.78;4921552;29;20143;-66
2021/12/10 08:03:04;;;;;;;10.18;8.35;;;;;;;-2.93;96.31;94626.34;4916645;28;20124;-66
2021/12/10 08:05:30;;;;;;;7.15;4.80;;;;;;;-2.80;96.37;94635.19;4923125;29;20067;-68
2021/12/10 08:07:55;;;;;;;7.85;3.80;;;;;;;-2.56;96.07;94628.31;4920626;29;20070;-68
2021/12/10 08:10:22;;;;;;;10.15;4.25;;;;;;;-2.31;93.51;94621.84;4916986;28;20184;-67
2021/12/10 08:12:47;;;;;;;6.60;4.25;;;;;;;-2.15;92.47;94608.56;4921119;29;20047;-68
2021/12/10 08:15:15;;;;;;;9.35;4.68;;;;;;;-2.19;92.18;94601.53;4904829;29;20129;-68
2021/12/10 08:17:42;;;;;;;11.05;5.93;;;;;;;-3.56;99.42;94596.22;4922719;29;20043;-67
2021/12/10 08:20:10;;;;;;;89.05;38.90;;;;;;;-3.86;100.00;94604.31;4915974;28;20074;-68
2021/12/10 08:22:36;;;;;;;20.13;13.77;;;;;;;-3.77;100.00;94606.94;4924819;28;20106;-68
2021/12/10 08:25:03;;;;;;;9.05;6.10;;;;;;;-3.65;100.00;94607.78;4921590;28;20047;-68
2021/12/10 08:27:29;;;;;;;27.42;17.85;;;;;;;-3.51;100.00;94614.72;4920274;29;20044;-67
2021/12/10 08:29:58;;;;;;;11.00;5.22;;;;;;;-3.34;100.00;94619.19;4924511;28;20087;-67
2021/12/10 08:32:23;;;;;;;8.90;4.27;;;;;;;-3.13;100.00;94624.50;4918690;29;20790;-69
2021/12/10 08:34:50;;;;;;;9.35;5.57;;;;;;;-3.02;99.73;94619.53;4922074;29;20311;-68
2021/12/10 08:37:16;;;;;;;7.32;4.70;;;;;;;-2.95;99.02;94620.53;4918120;28;20052;-67
2021/12/10 08:39:43;;;;;;;4.82;3.20;;;;;;;-3.16;97.95;94617.91;4921817;28;20402;-68
2021/12/10 08:42:09;;;;;;;7.97;4.85;;;;;;;-3.05;99.45;94620.94;4919312;28;20138;-68
2021/12/10 08:44:35;;;;;;;13.98;7.43;;;;;;;-2.91;98.93;94629.47;4923877;29;20093;-67
2021/12/10 08:47:00;;;;;;;10.77;6.45;;;;;;;-2.49;99.05;94620.50;4923040;29;20068;-70
2021/12/10 08:49:27;;;;;;;9.88;6.20;;;;;;;-2.33;96.37;94605.31;4918947;29;20063;-69
2021/12/10 08:51:56;;;;;;;7.15;4.63;;;;;;;-2.50;96.44;94590.25;4925123;29;20035;-69
2021/12/10 08:54:28;;;;;;;9.03;3.97;;;;;;;-2.37;95.86;94579.53;4910618;29;20706;-69
2021/12/10 08:56:55;;;;;;;8.55;4.40;;;;;;;-2.54;95.89;94559.06;4927540;29;20047;-69
2021/12/10 08:59:23;;;;;;;9.55;5.07;;;;;;;-2.73;98.52;94565.00;4915498;29;20134;-69
2021/12/10 09:01:52;;;;;;;7.25;4.03;;;;;;;-2.90;99.80;94561.41;4909200;29;20472;-68
2021/12/10 09:04:18;;;;;;;;;;;;;;;-2.73;99.16;94573.03;4914421;29;20043;-68
2021/12/10 09:06:48;;;;;;;8.07;3.50;;;;;;;-2.43;99.20;94575.47;4920372;29;19939;-68
2021/12/10 09:09:14;;;;;;;7.03;4.43;;;;;;;-2.13;97.66;94574.13;4917605;29;20038;-67
2021/12/10 09:11:46;;;;;;;7.15;4.47;;;;;;;-2.41;95.33;94587.44;4924084;29;20493;-67
2021/12/10 09:14:12;;;;;;;6.20;3.80;;;;;;;-2.25;94.79;94594.81;4918139;29;20054;-67
2021/12/10 09:16:38;;;;;;;6.93;3.42;;;;;;;-2.05;93.95;94601.16;4921019;29;20070;-67
2021/12/10 09:19:09;;;;;;;7.53;3.50;;;;;;;-2.57;94.53;94616.03;4920102;29;20529;-68
2021/12/10 09:21:35;;;;;;;6.78;3.65;;;;;;;-2.21;93.90;94617.94;4918938;29;20175;-67
2021/12/10 09:24:06;;;;;;;5.05;3.58;;;;;;;-1.83;93.79;94611.44;4923210;29;20065;-66
2021/12/10 09:26:35;;;;;;;8.23;3.17;;;;;;;-1.64;91.67;94600.13;4922424;29;20059;-70
2021/12/10 09:29:05;;;;;;;11.02;7.03;;;;;;;-2.27;94.45;94597.06;4921660;29;20044;-66
2021/12/10 09:31:31;;;;;;;;;;;;;;;-2.29;95.39;94583.97;4922104;29;20136;-66
2021/12/10 09:33:58;;;;;;;6.28;3.95;;;;;;;-2.42;97.60;94574.38;4923885;29;19931;-66
2021/12/10 09:36:24;;;;;;;11.75;4.30;;;;;;;-2.48;98.67;94568.47;4917271;29;20047;-67
2021/12/10 09:38:50;;;;;;;9.77;5.05;;;;;;;-2.23;97.64;94571.13;4923870;29;20036;-67
2021/12/10 09:41:16;;;;;;;7.20;4.68;;;;;;;-2.02;97.01;94579.03;4917741;29;20058;-68
2021/12/10 09:43:43;;;;;;;11.18;4.70;;;;;;;-1.63;95.71;94574.81;4922814;29;20043;-68
2021/12/10 09:46:09;;;;;;;11.15;4.85;;;;;;;-1.19;91.41;94593.69;4917551;29;20119;-68
2021/12/10 09:48:35;;;;;;;7.15;3.92;;;;;;;-1.22;92.60;94594.38;4923789;28;20048;-68
2021/12/10 09:51:26;;;;;;;10.00;5.75;;;;;;;-1.13;92.45;94604.97;4924375;29;20039;-67
2021/12/10 09:53:56;;;;;;;10.40;5.38;;;;;;;-1.05;93.00;94595.19;4927326;29;20099;-68
2021/12/10 09:56:23;;;;;;;11.23;5.78;;;;;;;-1.17;94.13;94598.69;4922024;29;21688;-66
2021/12/10 09:58:50;;;;;;;10.77;4.85;;;;;;;-0.99;94.32;94599.16;4919146;29;20066;-66
2021/12/10 10:01:23;;;;;;;10.00;4.78;;;;;;;-0.79;93.81;94584.75;4914428;29;20043;-66
2021/12/10 10:03:51;;;;;;;12.02;5.88;;;;;;;-0.58;93.53;94591.78;4914699;29;20139;-68
2021/12/10 10:06:17;;;;;;;12.55;6.13;;;;;;;-0.51;91.39;94601.94;4918235;29;20103;-69
2021/12/10 10:08:44;;;;;;;11.15;5.22;;;;;;;-0.49;91.03;94600.44;4923555;29;20043;-67
2021/12/10 10:11:16;;;;;;;11.27;5.03;;;;;;;-0.60;91.61;94596.72;4918219;29;20111;-66
2021/12/10 10:13:44;;;;;;;7.28;4.20;;;;;;;-0.30;92.12;94589.00;4924060;29;20413;-66
2021/12/10 10:16:11;;;;;;;8.98;4.65;;;;;;;-0.22;91.96;94588.06;4919025;29;20040;-67
2021/12/10 10:18:40;;;;;;;7.60;4.45;;;;;;;-0.31;91.28;94592.81;4924651;29;20043;-67
2021/12/10 10:21:29;;;;;;;13.38;5.22;;;;;;;-0.48;92.99;94590.50;4919725;29;20047;-66
2021/12/10 10:23:54;;;;;;;7.70;3.95;;;;;;;-0.30;92.98;94575.56;4919455;29;20040;-65
2021/12/10 10:26:31;;;;;;;6.43;3.85;;;;;;;-0.61;94.58;94574.44;4918535;29;20050;-67
2021/12/10 10:29:05;;;;;;;9.10;4.35;;;;;;;-0.35;94.30;94569.66;4924789;29;20412;-67
2021/12/10 10:31:30;;;;;;;7.85;4.55;;;;;;;-0.27;91.86;94555.22;4925159;29;20047;-68
2021/12/10 10:33:57;;;;;;;10.63;6.55;;;;;;;-0.47;92.10;94555.19;4927053;29;20507;-67
2021/12/10 10:36:28;;;;;;;9.88;4.72;;;;;;;-0.36;92.22;94562.72;4920873;29;20051;-67
2021/12/10 10:39:03;;;;;;;10.88;5.57;;;;;;;-0.86;92.17;94557.69;4922655;29;20035;-66
2021/12/10 10:41:31;;;;;;;8.32;4.97;;;;;;;-0.71;92.99;94553.44;4924189;29;20054;-67
2021/12/10 10:43:57;;;;;;;8.00;4.82;;;;;;;-0.41;92.53;94553.00;4926492;29;20520;-67
2021/12/10 10:46:23;;;;;;;14.90;6.50;;;;;;;-0.50;89.41;94545.13;4921059;29;20810;-67
2021/12/10 10:48:48;;;;;;;20.55;9.13;;;;;;;-0.74;92.87;94539.91;4926672;29;20160;-66
2021/12/10 10:51:33;;;;;;;11.40;5.22;;;;;;;-0.98;94.11;94531.66;4920051;29;20047;-65
2021/12/10 10:54:00;;;;;;;9.13;5.30;;;;;;;-0.76;93.89;94529.50;4908076;29;20051;-67
2021/12/10 10:56:39;;;;;;;10.30;4.95;;;;;;;-0.51;93.75;94532.78;4902738;29;20036;-67
2021/12/10 10:59:15;;;;;;;10.75;5.40;;;;;;;-0.31;92.56;94539.00;4916808;29;20147;-66
2021/12/10 11:01:57;;;;;;;8.35;5.18;;;;;;;-0.21;91.68;94530.41;4907839;29;20044;-67
2021/12/10 11:04:29;;;;;;;11.52;5.38;;;;;;;-0.08;90.64;94514.16;4904488;29;20214;-66
2021/12/10 11:07:11;;;;;;;8.63;4.95;;;;;;;-0.26;91.02;94514.53;4911325;29;20070;-67
2021/12/10 11:09:45;;;;;;;11.60;5.75;;;;;;;-0.21;91.55;94518.88;4905014;29;20590;-67
2021/12/10 11:12:16;;;;;;;13.77;8.15;;;;;;;-0.03;91.54;94525.41;4902477;29;20406;-67
2021/12/10 11:14:44;;;;;;;13.43;7.32;;;;;;;-0.02;91.59;94516.22;4906228;29;20135;-67
2021/12/10 11:17:14;;;;;;;11.38;6.35;;;;;;;0.03;91.48;94514.38;4900508;29;20517;-67
2021/12/10 11:19:41;;;;;;;;;;;;;;;0.09;91.56;94511.06;4907597;29;20100;-69
2021/12/10 11:22:14;;;;;;;16.45;8.90;;;;;;;0.22;91.33;94509.03;4906077;29;19915;-68
2021/12/10 11:24:48;;;;;;;10.65;4.93;;;;;;;0.46;89.97;94507.94;4906835;29;20076;-68
2021/12/10 11:27:17;;;;;;;9.27;5.25;;;;;;;0.62;89.41;94504.41;4901524;29;20047;-66
2021/12/10 11:29:52;;;;;;;9.20;4.95;;;;;;;0.57;89.77;94492.75;4907406;29;20048;-68
2021/12/10 11:32:42;;;;;;;7.88;4.97;;;;;;;0.69;89.80;94501.84;4894485;29;20520;-67
2021/12/10 11:35:24;;;;;;;8.52;5.65;;;;;;;0.79;88.80;94500.47;4901221;29;20113;-66
2021/12/10 11:37:55;;;;;;;10.68;5.25;;;;;;;0.28;89.51;94493.38;4905686;29;20091;-66
2021/12/10 11:40:42;;;;;;;11.52;6.20;;;;;;;-0.11;94.84;94487.94;4902852;29;20655;-68
2021/12/10 11:48:36;;;;;;;10.13;5.72;;;;;;;-0.43;100.00;94490.72;4905206;29;20123;-67